sensor_id;sensor_type;location;lat;lon;timestamp;temperature;humidity
18189;DHT22;9219;50.396;8.546;2022-10-31T00:00:15;18.30;99.90
18189;DHT22;9219;50.396;8.546;2022-10-31T00:02:48;18.20;99.90
18189;DHT22;9219;50.396;8.546;2022-10-31T00:05:18;18.00;99.90
18189;DHT22;9219;50.396;8.546;2022-10-31T00:07:45;17.80;99.90
18189;DHT22;9219;50.396;8.546;2022-10-31T00:10:12;17.80;99.90
18189;DHT22;9219;50.396;8.546;2022-10-31T00:12:41;17.60;99.90
18189;DHT22;9219;50.396;8.546;2022-10-31T00:18:00;17.50;99.90
18189;DHT22;9219;50.396;8.546;2022-10-31T00:20:27;17.50;99.90
18189;DHT22;9219;50.396;8.546;2022-10-31T00:22:57;17.70;99.90
18189;DHT22;9219;50.396;8.546;2022-10-31T00:25:27;17.70;99.90
18189;DHT22;9219;50.396;8.546;2022-10-31T00:27:56;17.60;99.90
18189;DHT22;9219;50.396;8.546;2022-10-31T00:30:24;17.80;99.90
18189;DHT22;9219;50.396;8.546;2022-10-31T00:32:52;17.60;99.90
18189;DHT22;9219;50.396;8.546;2022-10-31T00:35:21;17.80;99.90
18189;DHT22;9219;50.396;8.546;2022-10-31T00:38:17;17.70;99.90
18189;DHT22;9219;50.396;8.546;2022-10-31T00:40:44;17.70;99.90
18189;DHT22;9219;50.396;8.546;2022-10-31T00:43:14;17.90;99.90
18189;DHT22;9219;50.396;8.546;2022-10-31T00:45:42;17.80;99.90
18189;DHT22;9219;50.396;8.546;2022-10-31T00:48:11;17.70;99.90
18189;DHT22;9219;50.396;8.546;2022-10-31T00:50:38;17.90;99.90
18189;DHT22;9219;50.396;8.546;2022-10-31T00:53:06;17.80;99.90
18189;DHT22;9219;50.396;8.546;2022-10-31T00:58:18;17.60;99.90
18189;DHT22;9219;50.396;8.546;2022-10-31T01:00:48;17.30;99.90
18189;DHT22;9219;50.396;8.546;2022-10-31T01:03:21;17.30;99.90
18189;DHT22;9219;50.396;8.546;2022-10-31T01:06:00;17.20;99.90
18189;DHT22;9219;50.396;8.546;2022-10-31T01:08:28;17.30;99.90
18189;DHT22;9219;50.396;8.546;2022-10-31T01:11:05;17.40;99.90
18189;DHT22;9219;50.396;8.546;2022-10-31T01:13:34;17.70;99.90
18189;DHT22;9219;50.396;8.546;2022-10-31T01:16:04;17.80;99.90
18189;DHT22;9219;50.396;8.546;2022-10-31T01:21:14;17.90;99.90
18189;DHT22;9219;50.396;8.546;2022-10-31T01:23:41;18.10;99.90
18189;DHT22;9219;50.396;8.546;2022-10-31T01:26:13;18.20;99.90
18189;DHT22;9219;50.396;8.546;2022-10-31T01:28:45;18.30;99.90
18189;DHT22;9219;50.396;8.546;2022-10-31T01:31:13;18.30;99.90
18189;DHT22;9219;50.396;8.546;2022-10-31T01:33:40;18.20;99.90
18189;DHT22;9219;50.396;8.546;2022-10-31T01:36:17;18.10;99.90
18189;DHT22;9219;50.396;8.546;2022-10-31T01:43:13;18.00;99.90
18189;DHT22;9219;50.396;8.546;2022-10-31T01:45:41;18.20;99.90
18189;DHT22;9219;50.396;8.546;2022-10-31T01:48:12;18.00;99.90
18189;DHT22;9219;50.396;8.546;2022-10-31T01:50:42;18.00;99.90
18189;DHT22;9219;50.396;8.546;2022-10-31T01:53:09;18.00;99.90
18189;DHT22;9219;50.396;8.546;2022-10-31T01:55:39;18.00;99.90
18189;DHT22;9219;50.396;8.546;2022-10-31T01:58:09;18.10;99.90
18189;DHT22;9219;50.396;8.546;2022-10-31T02:05:18;18.00;99.90
18189;DHT22;9219;50.396;8.546;2022-10-31T02:07:53;17.70;99.90
18189;DHT22;9219;50.396;8.546;2022-10-31T02:10:22;17.70;99.90
18189;DHT22;9219;50.396;8.546;2022-10-31T02:12:51;17.60;99.90
18189;DHT22;9219;50.396;8.546;2022-10-31T02:15:20;17.70;99.90
18189;DHT22;9219;50.396;8.546;2022-10-31T02:17:48;17.70;99.90
18189;DHT22;9219;50.396;8.546;2022-10-31T02:20:18;17.60;99.90
18189;DHT22;9219;50.396;8.546;2022-10-31T02:31:18;17.60;99.90
18189;DHT22;9219;50.396;8.546;2022-10-31T02:33:53;17.40;99.90
18189;DHT22;9219;50.396;8.546;2022-10-31T02:36:26;17.40;99.90
18189;DHT22;9219;50.396;8.546;2022-10-31T02:39:06;17.40;99.90
18189;DHT22;9219;50.396;8.546;2022-10-31T02:41:47;17.10;99.90
18189;DHT22;9219;50.396;8.546;2022-10-31T02:44:21;17.20;99.90
18189;DHT22;9219;50.396;8.546;2022-10-31T02:46:54;17.30;99.90
18189;DHT22;9219;50.396;8.546;2022-10-31T02:54:45;17.30;99.90
18189;DHT22;9219;50.396;8.546;2022-10-31T02:57:14;17.30;99.90
18189;DHT22;9219;50.396;8.546;2022-10-31T02:59:48;17.40;99.90
18189;DHT22;9219;50.396;8.546;2022-10-31T03:02:30;17.40;99.90
18189;DHT22;9219;50.396;8.546;2022-10-31T03:08:13;17.40;99.90
18189;DHT22;9219;50.396;8.546;2022-10-31T03:10:49;17.50;99.90
18189;DHT22;9219;50.396;8.546;2022-10-31T03:18:44;17.30;99.90
18189;DHT22;9219;50.396;8.546;2022-10-31T03:21:19;17.50;99.90
18189;DHT22;9219;50.396;8.546;2022-10-31T03:23:48;17.70;99.90
18189;DHT22;9219;50.396;8.546;2022-10-31T03:26:17;17.60;99.90
18189;DHT22;9219;50.396;8.546;2022-10-31T03:28:53;17.40;99.90
18189;DHT22;9219;50.396;8.546;2022-10-31T03:31:24;17.00;99.90
18189;DHT22;9219;50.396;8.546;2022-10-31T03:33:56;17.20;99.90
18189;DHT22;9219;50.396;8.546;2022-10-31T03:40:27;17.60;99.90
18189;DHT22;9219;50.396;8.546;2022-10-31T03:42:58;17.90;99.90
18189;DHT22;9219;50.396;8.546;2022-10-31T03:45:29;17.90;99.90
18189;DHT22;9219;50.396;8.546;2022-10-31T03:47:58;17.80;99.90
18189;DHT22;9219;50.396;8.546;2022-10-31T03:50:32;17.70;99.90
18189;DHT22;9219;50.396;8.546;2022-10-31T03:53:07;17.50;99.90
18189;DHT22;9219;50.396;8.546;2022-10-31T03:55:40;17.20;99.90
18189;DHT22;9219;50.396;8.546;2022-10-31T04:02:12;17.10;99.90
18189;DHT22;9219;50.396;8.546;2022-10-31T04:04:40;17.20;99.90
18189;DHT22;9219;50.396;8.546;2022-10-31T04:07:09;17.30;99.90
18189;DHT22;9219;50.396;8.546;2022-10-31T04:09:39;17.50;99.90
18189;DHT22;9219;50.396;8.546;2022-10-31T04:12:09;17.70;99.90
18189;DHT22;9219;50.396;8.546;2022-10-31T04:14:43;17.90;99.90
18189;DHT22;9219;50.396;8.546;2022-10-31T04:19:54;17.90;99.90
18189;DHT22;9219;50.396;8.546;2022-10-31T04:22:21;17.60;99.90
18189;DHT22;9219;50.396;8.546;2022-10-31T04:24:51;17.40;99.90
18189;DHT22;9219;50.396;8.546;2022-10-31T04:27:19;17.60;99.90
18189;DHT22;9219;50.396;8.546;2022-10-31T04:29:49;17.80;99.90
18189;DHT22;9219;50.396;8.546;2022-10-31T04:32:16;17.90;99.90
18189;DHT22;9219;50.396;8.546;2022-10-31T04:34:44;17.80;99.90
18189;DHT22;9219;50.396;8.546;2022-10-31T04:39:51;17.60;99.90
18189;DHT22;9219;50.396;8.546;2022-10-31T04:42:19;17.70;99.90
18189;DHT22;9219;50.396;8.546;2022-10-31T04:44:46;17.70;99.90
18189;DHT22;9219;50.396;8.546;2022-10-31T04:47:14;17.70;99.90
18189;DHT22;9219;50.396;8.546;2022-10-31T04:49:41;17.60;99.90
18189;DHT22;9219;50.396;8.546;2022-10-31T04:52:08;17.80;99.90
18189;DHT22;9219;50.396;8.546;2022-10-31T04:54:35;17.60;99.90
18189;DHT22;9219;50.396;8.546;2022-10-31T05:01:34;17.70;99.90
18189;DHT22;9219;50.396;8.546;2022-10-31T05:04:01;17.50;99.90
18189;DHT22;9219;50.396;8.546;2022-10-31T05:06:29;17.40;99.90
18189;DHT22;9219;50.396;8.546;2022-10-31T05:08:56;17.20;99.90
18189;DHT22;9219;50.396;8.546;2022-10-31T05:11:23;17.00;99.90
18189;DHT22;9219;50.396;8.546;2022-10-31T05:13:53;16.80;99.90
18189;DHT22;9219;50.396;8.546;2022-10-31T05:16:20;16.90;99.90
18189;DHT22;9219;50.396;8.546;2022-10-31T05:23:17;17.00;99.90
18189;DHT22;9219;50.396;8.546;2022-10-31T05:25:44;17.10;99.90
18189;DHT22;9219;50.396;8.546;2022-10-31T05:28:12;17.10;99.90
18189;DHT22;9219;50.396;8.546;2022-10-31T05:30:39;17.20;99.90
18189;DHT22;9219;50.396;8.546;2022-10-31T05:33:06;17.30;99.90
18189;DHT22;9219;50.396;8.546;2022-10-31T05:35:33;17.30;99.90
18189;DHT22;9219;50.396;8.546;2022-10-31T05:38:01;17.30;99.90
18189;DHT22;9219;50.396;8.546;2022-10-31T05:45:17;17.40;99.90
18189;DHT22;9219;50.396;8.546;2022-10-31T05:47:50;17.30;99.90
18189;DHT22;9219;50.396;8.546;2022-10-31T05:50:18;17.40;99.90
18189;DHT22;9219;50.396;8.546;2022-10-31T05:52:45;17.40;99.90
18189;DHT22;9219;50.396;8.546;2022-10-31T05:55:12;17.30;99.90
18189;DHT22;9219;50.396;8.546;2022-10-31T05:57:40;17.30;99.90
18189;DHT22;9219;50.396;8.546;2022-10-31T06:00:08;17.20;99.90
18189;DHT22;9219;50.396;8.546;2022-10-31T06:07:03;17.20;99.90
18189;DHT22;9219;50.396;8.546;2022-10-31T06:09:30;17.20;99.90
18189;DHT22;9219;50.396;8.546;2022-10-31T06:11:57;17.30;99.90
18189;DHT22;9219;50.396;8.546;2022-10-31T06:14:25;17.20;99.90
18189;DHT22;9219;50.396;8.546;2022-10-31T06:16:53;17.20;99.90
18189;DHT22;9219;50.396;8.546;2022-10-31T06:19:21;17.10;99.90
18189;DHT22;9219;50.396;8.546;2022-10-31T06:21:49;17.10;99.90
18189;DHT22;9219;50.396;8.546;2022-10-31T06:28:47;17.00;99.90
18189;DHT22;9219;50.396;8.546;2022-10-31T06:31:14;16.70;99.90
18189;DHT22;9219;50.396;8.546;2022-10-31T06:33:42;16.60;99.90
18189;DHT22;9219;50.396;8.546;2022-10-31T06:36:09;16.50;99.90
18189;DHT22;9219;50.396;8.546;2022-10-31T06:38:39;16.50;99.90
18189;DHT22;9219;50.396;8.546;2022-10-31T06:41:07;16.70;99.90
18189;DHT22;9219;50.396;8.546;2022-10-31T06:43:34;16.90;99.90
18189;DHT22;9219;50.396;8.546;2022-10-31T06:50:17;16.80;99.90
18189;DHT22;9219;50.396;8.546;2022-10-31T06:52:50;17.00;99.90
18189;DHT22;9219;50.396;8.546;2022-10-31T06:55:17;17.10;99.90
18189;DHT22;9219;50.396;8.546;2022-10-31T06:57:49;17.00;99.90
18189;DHT22;9219;50.396;8.546;2022-10-31T07:00:17;17.00;99.90
18189;DHT22;9219;50.396;8.546;2022-10-31T07:02:53;17.10;99.90
18189;DHT22;9219;50.396;8.546;2022-10-31T07:05:23;17.20;99.90
18189;DHT22;9219;50.396;8.546;2022-10-31T07:10:32;17.10;99.90
18189;DHT22;9219;50.396;8.546;2022-10-31T07:13:10;17.10;99.90
18189;DHT22;9219;50.396;8.546;2022-10-31T07:15:39;17.10;99.90
18189;DHT22;9219;50.396;8.546;2022-10-31T07:18:08;17.20;99.90
18189;DHT22;9219;50.396;8.546;2022-10-31T07:20:36;17.30;99.90
18189;DHT22;9219;50.396;8.546;2022-10-31T07:23:04;17.30;99.90
18189;DHT22;9219;50.396;8.546;2022-10-31T07:25:33;17.40;99.90
18189;DHT22;9219;50.396;8.546;2022-10-31T07:32:14;17.40;99.90
18189;DHT22;9219;50.396;8.546;2022-10-31T07:34:41;17.30;99.90
18189;DHT22;9219;50.396;8.546;2022-10-31T07:37:13;17.40;99.90
18189;DHT22;9219;50.396;8.546;2022-10-31T07:39:40;17.50;99.90
18189;DHT22;9219;50.396;8.546;2022-10-31T07:42:07;17.50;99.90
18189;DHT22;9219;50.396;8.546;2022-10-31T07:44:34;17.50;99.90
18189;DHT22;9219;50.396;8.546;2022-10-31T07:47:02;17.80;99.90
18189;DHT22;9219;50.396;8.546;2022-10-31T07:52:40;18.00;99.90
18189;DHT22;9219;50.396;8.546;2022-10-31T07:55:09;18.20;99.90
18189;DHT22;9219;50.396;8.546;2022-10-31T07:57:37;18.20;99.90
18189;DHT22;9219;50.396;8.546;2022-10-31T08:00:05;18.20;99.90
18189;DHT22;9219;50.396;8.546;2022-10-31T08:02:33;18.40;99.90
18189;DHT22;9219;50.396;8.546;2022-10-31T08:05:00;18.60;99.90
18189;DHT22;9219;50.396;8.546;2022-10-31T08:07:29;18.60;99.90
18189;DHT22;9219;50.396;8.546;2022-10-31T08:14:42;18.60;99.90
18189;DHT22;9219;50.396;8.546;2022-10-31T08:17:11;18.80;99.90
18189;DHT22;9219;50.396;8.546;2022-10-31T08:19:38;19.00;99.90
18189;DHT22;9219;50.396;8.546;2022-10-31T08:22:10;18.90;99.90
18189;DHT22;9219;50.396;8.546;2022-10-31T08:24:38;19.00;99.90
18189;DHT22;9219;50.396;8.546;2022-10-31T08:27:10;19.10;99.90
18189;DHT22;9219;50.396;8.546;2022-10-31T08:29:38;19.00;99.90
18189;DHT22;9219;50.396;8.546;2022-10-31T08:32:07;19.00;99.90
18189;DHT22;9219;50.396;8.546;2022-10-31T08:34:35;18.90;99.90
18189;DHT22;9219;50.396;8.546;2022-10-31T08:42:08;18.90;99.90
18189;DHT22;9219;50.396;8.546;2022-10-31T08:44:35;19.20;99.90
18189;DHT22;9219;50.396;8.546;2022-10-31T08:47:03;19.30;99.90
18189;DHT22;9219;50.396;8.546;2022-10-31T08:49:30;19.50;99.90
18189;DHT22;9219;50.396;8.546;2022-10-31T08:51:57;19.40;99.90
18189;DHT22;9219;50.396;8.546;2022-10-31T08:54:25;19.20;99.90
18189;DHT22;9219;50.396;8.546;2022-10-31T08:56:54;19.10;99.90
18189;DHT22;9219;50.396;8.546;2022-10-31T09:03:22;19.10;99.90
18189;DHT22;9219;50.396;8.546;2022-10-31T09:05:50;19.00;99.90
18189;DHT22;9219;50.396;8.546;2022-10-31T09:08:21;18.60;99.90
18189;DHT22;9219;50.396;8.546;2022-10-31T09:10:48;18.80;99.90
18189;DHT22;9219;50.396;8.546;2022-10-31T09:13:17;18.90;99.90
18189;DHT22;9219;50.396;8.546;2022-10-31T09:15:49;18.80;99.90
18189;DHT22;9219;50.396;8.546;2022-10-31T09:18:19;18.90;99.90
18189;DHT22;9219;50.396;8.546;2022-10-31T09:23:51;18.80;99.90
18189;DHT22;9219;50.396;8.546;2022-10-31T09:26:22;19.00;99.90
18189;DHT22;9219;50.396;8.546;2022-10-31T09:28:49;18.90;99.90
18189;DHT22;9219;50.396;8.546;2022-10-31T09:31:17;19.10;99.90
18189;DHT22;9219;50.396;8.546;2022-10-31T09:33:44;19.40;99.90
18189;DHT22;9219;50.396;8.546;2022-10-31T09:36:11;19.30;99.90
18189;DHT22;9219;50.396;8.546;2022-10-31T09:38:38;19.30;99.90
18189;DHT22;9219;50.396;8.546;2022-10-31T09:43:50;19.20;99.90
18189;DHT22;9219;50.396;8.546;2022-10-31T09:46:29;19.00;99.90
18189;DHT22;9219;50.396;8.546;2022-10-31T09:49:21;19.30;99.90
18189;DHT22;9219;50.396;8.546;2022-10-31T09:51:55;19.40;99.90
18189;DHT22;9219;50.396;8.546;2022-10-31T09:54:28;19.50;99.90
18189;DHT22;9219;50.396;8.546;2022-10-31T09:56:57;19.50;99.90
18189;DHT22;9219;50.396;8.546;2022-10-31T09:59:31;19.60;99.90
18189;DHT22;9219;50.396;8.546;2022-10-31T10:06:06;19.00;99.90
18189;DHT22;9219;50.396;8.546;2022-10-31T10:08:38;19.50;99.90
18189;DHT22;9219;50.396;8.546;2022-10-31T10:11:20;19.10;99.90
18189;DHT22;9219;50.396;8.546;2022-10-31T10:14:06;19.10;99.90
18189;DHT22;9219;50.396;8.546;2022-10-31T10:16:48;19.20;99.90
18189;DHT22;9219;50.396;8.546;2022-10-31T10:19:39;19.30;99.90
18189;DHT22;9219;50.396;8.546;2022-10-31T10:27:16;18.80;99.90
18189;DHT22;9219;50.396;8.546;2022-10-31T10:29:53;19.10;99.90
18189;DHT22;9219;50.396;8.546;2022-10-31T10:32:30;19.20;99.90
18189;DHT22;9219;50.396;8.546;2022-10-31T10:35:01;19.00;99.90
18189;DHT22;9219;50.396;8.546;2022-10-31T10:37:32;19.20;99.90
18189;DHT22;9219;50.396;8.546;2022-10-31T10:40:08;19.30;99.90
18189;DHT22;9219;50.396;8.546;2022-10-31T10:42:39;19.00;99.90
18189;DHT22;9219;50.396;8.546;2022-10-31T10:48:31;19.40;99.90
18189;DHT22;9219;50.396;8.546;2022-10-31T10:51:06;19.60;99.90
18189;DHT22;9219;50.396;8.546;2022-10-31T10:54:20;19.90;99.90
18189;DHT22;9219;50.396;8.546;2022-10-31T10:56:59;20.10;99.90
18189;DHT22;9219;50.396;8.546;2022-10-31T10:59:29;20.40;99.90
18189;DHT22;9219;50.396;8.546;2022-10-31T11:01:56;20.50;99.90
18189;DHT22;9219;50.396;8.546;2022-10-31T11:07:39;20.60;99.90
18189;DHT22;9219;50.396;8.546;2022-10-31T11:10:12;20.20;99.90
18189;DHT22;9219;50.396;8.546;2022-10-31T11:12:42;20.00;99.90
18189;DHT22;9219;50.396;8.546;2022-10-31T11:15:18;20.20;99.90
18189;DHT22;9219;50.396;8.546;2022-10-31T11:17:49;20.40;99.90
18189;DHT22;9219;50.396;8.546;2022-10-31T11:20:30;20.80;99.90
18189;DHT22;9219;50.396;8.546;2022-10-31T11:23:15;20.80;99.90
18189;DHT22;9219;50.396;8.546;2022-10-31T11:25:59;20.80;99.90
18189;DHT22;9219;50.396;8.546;2022-10-31T11:28:28;20.90;99.90
18189;DHT22;9219;50.396;8.546;2022-10-31T11:30:58;21.10;99.90
18189;DHT22;9219;50.396;8.546;2022-10-31T11:33:30;20.80;99.90
18189;DHT22;9219;50.396;8.546;2022-10-31T11:35:58;20.50;99.90
18189;DHT22;9219;50.396;8.546;2022-10-31T11:38:33;20.10;99.90
18189;DHT22;9219;50.396;8.546;2022-10-31T11:41:10;20.10;99.90
18189;DHT22;9219;50.396;8.546;2022-10-31T11:47:57;19.80;99.90
18189;DHT22;9219;50.396;8.546;2022-10-31T11:50:36;19.70;99.90
18189;DHT22;9219;50.396;8.546;2022-10-31T11:53:12;20.10;99.90
18189;DHT22;9219;50.396;8.546;2022-10-31T11:55:41;19.50;99.90
18189;DHT22;9219;50.396;8.546;2022-10-31T11:58:21;19.90;99.90
18189;DHT22;9219;50.396;8.546;2022-10-31T12:00:51;20.20;99.90
18189;DHT22;9219;50.396;8.546;2022-10-31T12:03:43;20.50;99.90
18189;DHT22;9219;50.396;8.546;2022-10-31T12:10:55;20.80;99.90
18189;DHT22;9219;50.396;8.546;2022-10-31T12:13:33;20.40;99.90
18189;DHT22;9219;50.396;8.546;2022-10-31T12:16:10;20.20;99.90
18189;DHT22;9219;50.396;8.546;2022-10-31T12:18:56;19.70;99.90
18189;DHT22;9219;50.396;8.546;2022-10-31T12:21:43;20.20;99.90
18189;DHT22;9219;50.396;8.546;2022-10-31T12:24:22;20.60;99.90
18189;DHT22;9219;50.396;8.546;2022-10-31T12:32:08;20.20;99.90
18189;DHT22;9219;50.396;8.546;2022-10-31T12:37:57;21.10;99.90
18189;DHT22;9219;50.396;8.546;2022-10-31T12:40:40;21.40;99.90
18189;DHT22;9219;50.396;8.546;2022-10-31T12:43:26;21.60;99.90
18189;DHT22;9219;50.396;8.546;2022-10-31T12:45:57;21.80;99.90
18189;DHT22;9219;50.396;8.546;2022-10-31T12:51:15;21.80;99.90
18189;DHT22;9219;50.396;8.546;2022-10-31T12:53:55;21.50;99.90
18189;DHT22;9219;50.396;8.546;2022-10-31T12:56:38;20.50;99.90
18189;DHT22;9219;50.396;8.546;2022-10-31T12:59:12;20.90;99.90
18189;DHT22;9219;50.396;8.546;2022-10-31T13:01:45;20.60;99.90
18189;DHT22;9219;50.396;8.546;2022-10-31T13:04:20;20.30;99.90
18189;DHT22;9219;50.396;8.546;2022-10-31T13:06:51;20.20;99.90
18189;DHT22;9219;50.396;8.546;2022-10-31T13:14:25;20.40;99.90
18189;DHT22;9219;50.396;8.546;2022-10-31T13:16:56;20.50;99.90
18189;DHT22;9219;50.396;8.546;2022-10-31T13:19:27;20.20;99.90
18189;DHT22;9219;50.396;8.546;2022-10-31T13:22:00;20.20;99.90
18189;DHT22;9219;50.396;8.546;2022-10-31T13:24:33;20.20;99.90
18189;DHT22;9219;50.396;8.546;2022-10-31T13:27:09;20.40;99.90
18189;DHT22;9219;50.396;8.546;2022-10-31T13:29:44;20.80;99.90
18189;DHT22;9219;50.396;8.546;2022-10-31T13:36:59;20.80;99.90
18189;DHT22;9219;50.396;8.546;2022-10-31T13:39:38;20.80;99.90
18189;DHT22;9219;50.396;8.546;2022-10-31T13:42:13;20.80;99.90
18189;DHT22;9219;50.396;8.546;2022-10-31T13:44:42;20.80;99.90
18189;DHT22;9219;50.396;8.546;2022-10-31T13:47:23;20.80;99.90
18189;DHT22;9219;50.396;8.546;2022-10-31T13:49:51;20.70;99.90
18189;DHT22;9219;50.396;8.546;2022-10-31T13:55:37;19.60;99.90
18189;DHT22;9219;50.396;8.546;2022-10-31T13:58:17;19.50;99.90
18189;DHT22;9219;50.396;8.546;2022-10-31T14:00:51;19.40;99.90
18189;DHT22;9219;50.396;8.546;2022-10-31T14:03:26;19.10;99.90
18189;DHT22;9219;50.396;8.546;2022-10-31T14:06:15;19.20;99.90
18189;DHT22;9219;50.396;8.546;2022-10-31T14:08:49;19.10;99.90
18189;DHT22;9219;50.396;8.546;2022-10-31T14:16:24;19.10;99.90
18189;DHT22;9219;50.396;8.546;2022-10-31T14:18:59;19.10;99.90
18189;DHT22;9219;50.396;8.546;2022-10-31T14:21:30;18.90;99.90
18189;DHT22;9219;50.396;8.546;2022-10-31T14:24:00;18.70;99.90
18189;DHT22;9219;50.396;8.546;2022-10-31T14:26:35;18.60;99.90
18189;DHT22;9219;50.396;8.546;2022-10-31T14:29:25;18.50;99.90
18189;DHT22;9219;50.396;8.546;2022-10-31T14:34:56;18.50;99.90
18189;DHT22;9219;50.396;8.546;2022-10-31T14:37:37;18.50;99.90
18189;DHT22;9219;50.396;8.546;2022-10-31T14:40:22;18.50;99.90
18189;DHT22;9219;50.396;8.546;2022-10-31T14:43:22;18.40;99.90
18189;DHT22;9219;50.396;8.546;2022-10-31T14:45:59;18.40;99.90
18189;DHT22;9219;50.396;8.546;2022-10-31T14:56:23;18.80;99.90
18189;DHT22;9219;50.396;8.546;2022-10-31T14:58:53;19.00;99.90
18189;DHT22;9219;50.396;8.546;2022-10-31T15:01:25;19.40;99.90
18189;DHT22;9219;50.396;8.546;2022-10-31T15:03:58;19.20;99.90
18189;DHT22;9219;50.396;8.546;2022-10-31T15:06:49;19.00;99.90
18189;DHT22;9219;50.396;8.546;2022-10-31T15:09:22;18.90;99.90
18189;DHT22;9219;50.396;8.546;2022-10-31T15:14:51;19.00;99.90
18189;DHT22;9219;50.396;8.546;2022-10-31T15:17:19;19.30;99.90
18189;DHT22;9219;50.396;8.546;2022-10-31T15:19:47;19.50;99.90
18189;DHT22;9219;50.396;8.546;2022-10-31T15:22:16;18.70;99.90
18189;DHT22;9219;50.396;8.546;2022-10-31T15:24:49;18.10;99.90
18189;DHT22;9219;50.396;8.546;2022-10-31T15:27:23;18.10;99.90
18189;DHT22;9219;50.396;8.546;2022-10-31T15:33:02;18.00;99.90
18189;DHT22;9219;50.396;8.546;2022-10-31T15:35:30;18.20;99.90
18189;DHT22;9219;50.396;8.546;2022-10-31T15:37:59;18.40;99.90
18189;DHT22;9219;50.396;8.546;2022-10-31T15:40:29;18.20;99.90
18189;DHT22;9219;50.396;8.546;2022-10-31T15:43:00;18.10;99.90
18189;DHT22;9219;50.396;8.546;2022-10-31T15:45:32;18.40;99.90
18189;DHT22;9219;50.396;8.546;2022-10-31T15:48:18;18.60;99.90
18189;DHT22;9219;50.396;8.546;2022-10-31T15:55:19;18.10;99.90
18189;DHT22;9219;50.396;8.546;2022-10-31T15:57:56;18.10;99.90
18189;DHT22;9219;50.396;8.546;2022-10-31T16:00:29;17.80;99.90
18189;DHT22;9219;50.396;8.546;2022-10-31T16:03:06;17.70;99.90
18189;DHT22;9219;50.396;8.546;2022-10-31T16:05:45;17.80;99.90
18189;DHT22;9219;50.396;8.546;2022-10-31T16:08:33;17.60;99.90
18189;DHT22;9219;50.396;8.546;2022-10-31T16:14:00;17.60;99.90
18189;DHT22;9219;50.396;8.546;2022-10-31T16:16:41;17.10;99.90
18189;DHT22;9219;50.396;8.546;2022-10-31T16:19:18;17.30;99.90
18189;DHT22;9219;50.396;8.546;2022-10-31T16:21:52;17.10;99.90
18189;DHT22;9219;50.396;8.546;2022-10-31T16:24:29;16.80;99.90
18189;DHT22;9219;50.396;8.546;2022-10-31T16:27:02;16.70;99.90
18189;DHT22;9219;50.396;8.546;2022-10-31T16:32:28;16.60;99.90
18189;DHT22;9219;50.396;8.546;2022-10-31T16:34:59;16.40;99.90
18189;DHT22;9219;50.396;8.546;2022-10-31T16:37:28;16.90;99.90
18189;DHT22;9219;50.396;8.546;2022-10-31T16:39:56;17.00;99.90
18189;DHT22;9219;50.396;8.546;2022-10-31T16:42:26;16.80;99.90
18189;DHT22;9219;50.396;8.546;2022-10-31T16:44:54;16.90;99.90
18189;DHT22;9219;50.396;8.546;2022-10-31T16:47:22;17.30;99.90
18189;DHT22;9219;50.396;8.546;2022-10-31T16:54:56;17.30;99.90
18189;DHT22;9219;50.396;8.546;2022-10-31T16:57:26;17.30;99.90
18189;DHT22;9219;50.396;8.546;2022-10-31T16:59:55;17.30;99.90
18189;DHT22;9219;50.396;8.546;2022-10-31T17:02:24;17.40;99.90
18189;DHT22;9219;50.396;8.546;2022-10-31T17:04:52;17.20;99.90
18189;DHT22;9219;50.396;8.546;2022-10-31T17:07:23;17.40;99.90
18189;DHT22;9219;50.396;8.546;2022-10-31T17:09:52;17.20;99.90
18189;DHT22;9219;50.396;8.546;2022-10-31T17:16:55;17.30;99.90
18189;DHT22;9219;50.396;8.546;2022-10-31T17:19:26;17.60;99.90
18189;DHT22;9219;50.396;8.546;2022-10-31T17:21:53;17.40;99.90
18189;DHT22;9219;50.396;8.546;2022-10-31T17:24:24;17.00;99.90
18189;DHT22;9219;50.396;8.546;2022-10-31T17:26:51;16.90;99.90
18189;DHT22;9219;50.396;8.546;2022-10-31T17:29:19;16.90;99.90
18189;DHT22;9219;50.396;8.546;2022-10-31T17:31:47;16.90;99.90
18189;DHT22;9219;50.396;8.546;2022-10-31T17:39:24;17.10;99.90
18189;DHT22;9219;50.396;8.546;2022-10-31T17:41:52;16.90;99.90
18189;DHT22;9219;50.396;8.546;2022-10-31T17:44:26;17.00;99.90
18189;DHT22;9219;50.396;8.546;2022-10-31T17:46:59;17.10;99.90
18189;DHT22;9219;50.396;8.546;2022-10-31T17:49:33;17.10;99.90
18189;DHT22;9219;50.396;8.546;2022-10-31T17:52:02;16.80;99.90
18189;DHT22;9219;50.396;8.546;2022-10-31T17:54:43;16.50;99.90
18189;DHT22;9219;50.396;8.546;2022-10-31T18:00:19;16.50;99.90
18189;DHT22;9219;50.396;8.546;2022-10-31T18:02:55;16.40;99.90
18189;DHT22;9219;50.396;8.546;2022-10-31T18:05:22;16.40;99.90
18189;DHT22;9219;50.396;8.546;2022-10-31T18:07:49;16.20;99.90
18189;DHT22;9219;50.396;8.546;2022-10-31T18:10:17;16.00;99.90
18189;DHT22;9219;50.396;8.546;2022-10-31T18:12:45;15.90;99.90
18189;DHT22;9219;50.396;8.546;2022-10-31T18:15:14;15.80;99.90
18189;DHT22;9219;50.396;8.546;2022-10-31T18:22:47;15.60;99.90
18189;DHT22;9219;50.396;8.546;2022-10-31T18:25:17;15.50;99.90
18189;DHT22;9219;50.396;8.546;2022-10-31T18:27:45;15.70;99.90
18189;DHT22;9219;50.396;8.546;2022-10-31T18:30:18;15.80;99.90
18189;DHT22;9219;50.396;8.546;2022-10-31T18:32:49;15.90;99.90
18189;DHT22;9219;50.396;8.546;2022-10-31T18:35:21;16.10;99.90
18189;DHT22;9219;50.396;8.546;2022-10-31T18:37:51;16.10;99.90
18189;DHT22;9219;50.396;8.546;2022-10-31T18:45:15;16.00;99.90
18189;DHT22;9219;50.396;8.546;2022-10-31T18:48:05;16.00;99.90
18189;DHT22;9219;50.396;8.546;2022-10-31T18:50:33;16.20;99.90
18189;DHT22;9219;50.396;8.546;2022-10-31T18:53:04;16.30;99.90
18189;DHT22;9219;50.396;8.546;2022-10-31T18:55:43;16.30;99.90
18189;DHT22;9219;50.396;8.546;2022-10-31T18:58:16;16.10;99.90
18189;DHT22;9219;50.396;8.546;2022-10-31T19:00:46;16.20;99.90
18189;DHT22;9219;50.396;8.546;2022-10-31T19:08:19;16.10;99.90
18189;DHT22;9219;50.396;8.546;2022-10-31T19:10:47;16.40;99.90
18189;DHT22;9219;50.396;8.546;2022-10-31T19:13:18;16.40;99.90
18189;DHT22;9219;50.396;8.546;2022-10-31T19:15:49;16.50;99.90
18189;DHT22;9219;50.396;8.546;2022-10-31T19:18:19;16.60;99.90
18189;DHT22;9219;50.396;8.546;2022-10-31T19:20:58;16.70;99.90
18189;DHT22;9219;50.396;8.546;2022-10-31T19:23:38;16.70;99.90
18189;DHT22;9219;50.396;8.546;2022-10-31T19:26:14;17.20;99.90
18189;DHT22;9219;50.396;8.546;2022-10-31T19:45:02;17.70;99.90
18189;DHT22;9219;50.396;8.546;2022-10-31T19:47:30;17.40;99.90
18189;DHT22;9219;50.396;8.546;2022-10-31T19:50:13;17.60;99.90
18189;DHT22;9219;50.396;8.546;2022-10-31T19:52:44;17.60;99.90
18189;DHT22;9219;50.396;8.546;2022-10-31T19:55:15;17.70;99.90
18189;DHT22;9219;50.396;8.546;2022-10-31T19:57:46;17.50;99.90
18189;DHT22;9219;50.396;8.546;2022-10-31T20:00:46;17.50;99.90
18189;DHT22;9219;50.396;8.546;2022-10-31T20:03:17;17.70;99.90
18189;DHT22;9219;50.396;8.546;2022-10-31T20:08:29;17.70;99.90
18189;DHT22;9219;50.396;8.546;2022-10-31T20:11:06;17.60;99.90
18189;DHT22;9219;50.396;8.546;2022-10-31T20:13:36;17.50;99.90
18189;DHT22;9219;50.396;8.546;2022-10-31T20:16:07;17.80;99.90